Time;durP1;ratioP1;P1;durP2;ratioP2;P2;SDS_P1;SDS_P2;PMS_P1;PMS_P2;Temp;Humidity;BMP_temperature;BMP_pressure;BME280_temperature;BME280_humidity;BME280_pressure;Samples;Min_cycle;Max_cycle;Signal;HPM_P1;HPM_P2
2022/04/06 00:00:31;;;;;;;5.27;3.50;;;8.80;99.90;;;;;;5013468;28;20791;-68
2022/04/06 00:02:57;;;;;;;5.27;3.63;;;8.80;99.90;;;;;;5013600;28;20173;-67
2022/04/06 00:05:23;;;;;;;5.97;3.77;;;8.80;99.90;;;;;;5013592;28;20997;-67
2022/04/06 00:07:48;;;;;;;7.00;4.50;;;8.80;99.90;;;;;;5013751;28;20775;-68
2022/04/06 00:10:14;;;;;;;5.80;4.53;;;8.90;99.90;;;;;;5013117;28;20188;-69
2022/04/06 00:12:40;;;;;;;4.70;3.90;;;8.90;99.90;;;;;;5013145;28;20205;-68
2022/04/06 00:15:08;;;;;;;4.50;2.90;;;8.90;99.90;;;;;;5013054;28;20512;-68
2022/04/06 00:17:34;;;;;;;5.17;4.50;;;8.90;99.90;;;;;;5012927;28;20441;-68
2022/04/06 00:20:00;;;;;;;6.47;4.37;;;8.90;99.90;;;;;;5012934;28;20947;-68
2022/04/06 00:22:26;;;;;;;6.50;5.00;;;9.00;99.90;;;;;;5012959;28;20407;-68
2022/04/06 00:24:51;;;;;;;6.23;3.80;;;9.00;99.90;;;;;;5012750;28;20202;-68
2022/04/06 00:27:17;;;;;;;4.97;4.40;;;9.00;99.90;;;;;;5012309;28;20400;-68
2022/04/06 00:29:43;;;;;;;5.70;4.03;;;9.00;99.90;;;;;;5012588;28;20196;-68
2022/04/06 00:32:09;;;;;;;7.10;3.97;;;9.00;99.90;;;;;;5012775;28;20395;-68
2022/04/06 00:37:18;;;;;;;3.47;2.77;;;9.00;99.90;;;;;;5012771;28;20250;-68
2022/04/06 00:39:44;;;;;;;3.87;3.07;;;9.00;99.90;;;;;;5012493;28;20925;-69
2022/04/06 00:42:09;;;;;;;5.10;4.10;;;9.10;99.90;;;;;;5012618;28;20239;-68
2022/04/06 00:44:35;;;;;;;5.10;4.63;;;9.10;99.90;;;;;;5012445;28;20295;-68
2022/04/06 00:47:05;;;;;;;6.60;3.17;;;9.10;99.90;;;;;;5012639;28;20168;-68
2022/04/06 00:49:31;;;;;;;6.13;3.17;;;9.00;99.90;;;;;;5012740;28;20172;-68
2022/04/06 00:51:59;;;;;;;4.23;3.23;;;9.10;99.90;;;;;;5012409;28;20422;-68
2022/04/06 00:54:25;;;;;;;4.47;3.20;;;9.10;99.90;;;;;;5012401;28;20994;-68
2022/04/06 00:56:51;;;;;;;4.00;3.60;;;9.10;99.90;;;;;;5012746;28;20423;-68
2022/04/06 00:59:18;;;;;;;5.93;4.60;;;9.10;99.90;;;;;;5012416;28;20173;-68
2022/04/06 01:01:45;;;;;;;9.20;4.27;;;9.10;99.90;;;;;;5012347;28;20176;-69
2022/04/06 01:04:11;;;;;;;5.73;4.00;;;9.10;99.90;;;;;;5012389;28;20838;-68
2022/04/06 01:06:37;;;;;;;7.00;4.77;;;9.10;99.90;;;;;;5012161;28;20457;-68
2022/04/06 01:09:03;;;;;;;5.03;3.07;;;9.10;99.90;;;;;;5012264;28;20749;-68
2022/04/06 01:11:28;;;;;;;5.10;4.57;;;9.10;99.90;;;;;;5012235;28;20198;-68
2022/04/06 01:13:55;;;;;;;6.10;3.63;;;9.10;99.90;;;;;;5012114;28;20404;-68
2022/04/06 01:16:20;;;;;;;6.00;4.57;;;9.10;99.90;;;;;;5012030;28;20180;-68
2022/04/06 01:18:46;;;;;;;6.60;4.20;;;9.10;99.90;;;;;;5010725;28;20415;-69
2022/04/06 01:21:12;;;;;;;7.07;3.80;;;9.10;99.90;;;;;;5010221;28;20238;-68
2022/04/06 01:23:41;;;;;;;6.70;4.67;;;9.10;99.90;;;;;;5009723;28;20537;-69
2022/04/06 01:26:07;;;;;;;5.30;3.67;;;9.10;99.90;;;;;;5011787;28;20282;-67
2022/04/06 01:28:32;;;;;;;4.60;3.17;;;9.10;99.90;;;;;;5011999;28;20458;-67
2022/04/06 01:30:58;;;;;;;7.20;4.60;;;9.10;99.90;;;;;;5011743;28;20428;-68
2022/04/06 01:33:23;;;;;;;6.23;4.60;;;9.10;99.90;;;;;;5011738;28;20168;-69
2022/04/06 01:35:49;;;;;;;6.10;3.83;;;9.10;99.90;;;;;;5011750;28;20533;-69
2022/04/06 01:38:14;;;;;;;9.77;4.93;;;9.10;99.90;;;;;;5010435;28;20172;-69
2022/04/06 01:40:40;;;;;;;6.00;4.30;;;9.10;99.90;;;;;;5018007;28;20689;-69
2022/04/06 01:43:06;;;;;;;5.40;3.70;;;9.10;99.90;;;;;;5018293;28;20555;-67
2022/04/06 01:45:31;;;;;;;7.20;4.40;;;9.20;99.90;;;;;;5018515;28;20204;-68
2022/04/06 01:47:57;;;;;;;3.97;3.50;;;9.20;99.90;;;;;;5018978;28;20627;-68
2022/04/06 01:53:06;;;;;;;5.63;3.43;;;9.20;99.90;;;;;;5018837;28;20183;-68
2022/04/06 01:55:32;;;;;;;5.07;3.90;;;9.20;99.90;;;;;;5018009;28;20419;-68
2022/04/06 01:57:57;;;;;;;6.10;4.57;;;9.20;99.90;;;;;;5018133;28;20211;-68
2022/04/06 02:00:23;;;;;;;7.20;5.30;;;9.20;99.90;;;;;;5017832;28;20615;-67
2022/04/06 02:02:51;;;;;;;7.63;4.20;;;9.20;99.90;;;;;;5018066;28;20204;-67
2022/04/06 02:05:21;;;;;;;5.63;4.20;;;9.20;99.90;;;;;;5017985;28;20579;-68
2022/04/06 02:07:46;;;;;;;6.43;4.50;;;9.10;99.90;;;;;;5018272;28;20398;-68
2022/04/06 02:10:13;;;;;;;5.43;3.90;;;9.20;99.90;;;;;;5017812;28;20435;-68
2022/04/06 02:12:39;;;;;;;8.30;5.30;;;9.20;99.90;;;;;;5017971;28;20612;-68
2022/04/06 02:15:10;;;;;;;6.80;4.60;;;9.20;99.90;;;;;;5017713;28;20425;-69
2022/04/06 02:17:35;;;;;;;8.43;4.57;;;9.20;99.90;;;;;;5018259;28;20427;-69
2022/04/06 02:20:01;;;;;;;7.43;4.83;;;9.20;99.90;;;;;;5017782;28;20443;-66
2022/04/06 02:22:26;;;;;;;6.00;4.57;;;9.20;99.90;;;;;;5017922;28;20542;-67
2022/04/06 02:24:51;;;;;;;8.70;5.00;;;9.20;99.90;;;;;;5018655;28;20254;-67
2022/04/06 02:27:17;;;;;;;7.10;4.63;;;9.20;99.90;;;;;;5018349;28;20168;-67
2022/04/06 02:29:43;;;;;;;5.77;4.63;;;9.20;99.90;;;;;;5021273;28;20250;-67
2022/04/06 02:32:09;;;;;;;7.50;3.73;;;9.20;99.90;;;;;;5019160;28;20657;-68
2022/04/06 02:34:35;;;;;;;6.80;4.93;;;9.20;99.90;;;;;;5018407;28;20506;-68
2022/04/06 02:37:02;;;;;;;6.77;4.30;;;9.20;99.90;;;;;;5018149;28;20410;-68
2022/04/06 02:39:27;;;;;;;6.43;5.20;;;9.20;99.90;;;;;;5017404;28;20840;-68
2022/04/06 02:41:53;;;;;;;7.40;4.77;;;9.20;99.90;;;;;;5017316;28;20493;-68
2022/04/06 02:44:18;;;;;;;6.77;4.77;;;9.10;99.90;;;;;;5017543;28;20626;-68
2022/04/06 02:46:45;;;;;;;5.70;4.33;;;9.20;99.90;;;;;;5017711;28;20180;-68
2022/04/06 02:49:10;;;;;;;4.80;4.10;;;9.20;99.90;;;;;;5017857;28;20594;-68
2022/04/06 02:51:36;;;;;;;7.47;5.10;;;9.10;99.90;;;;;;5014350;28;20419;-68
2022/04/06 02:54:01;;;;;;;8.73;5.03;;;9.10;99.90;;;;;;5014934;28;20188;-69
2022/04/06 02:56:28;;;;;;;5.93;3.80;;;9.10;99.90;;;;;;5014215;28;20164;-69
2022/04/06 02:58:53;;;;;;;5.27;3.83;;;9.20;99.90;;;;;;5014547;28;20326;-69
2022/04/06 03:01:19;;;;;;;6.93;4.57;;;9.20;99.90;;;;;;5014283;28;20514;-69
2022/04/06 03:03:45;;;;;;;7.43;5.73;;;9.20;99.90;;;;;;5014491;28;20195;-69
2022/04/06 03:06:10;;;;;;;7.73;6.10;;;9.20;99.90;;;;;;5014263;28;20196;-69
2022/04/06 03:08:35;;;;;;;7.67;5.50;;;9.20;99.90;;;;;;5014120;28;20208;-69
2022/04/06 03:11:01;;;;;;;5.53;4.67;;;9.20;99.90;;;;;;5014126;28;20215;-69
2022/04/06 03:13:26;;;;;;;8.43;5.27;;;9.20;99.90;;;;;;5014354;28;20246;-69
2022/04/06 03:15:52;;;;;;;8.10;4.90;;;9.20;99.90;;;;;;5014095;28;20179;-68
2022/04/06 03:18:17;;;;;;;8.67;5.73;;;9.10;99.90;;;;;;5014050;28;20239;-68
2022/04/06 03:20:43;;;;;;;7.43;5.40;;;9.20;99.90;;;;;;5013804;28;20207;-69
2022/04/06 03:23:08;;;;;;;7.97;5.20;;;9.10;99.90;;;;;;5014079;28;20191;-68
2022/04/06 03:25:34;;;;;;;7.67;4.73;;;9.20;99.90;;;;;;5013717;28;20192;-68
2022/04/06 03:27:59;;;;;;;6.47;4.30;;;9.20;99.90;;;;;;5013930;28;20178;-69
2022/04/06 03:30:25;;;;;;;9.87;5.30;;;9.20;99.90;;;;;;5013809;28;20428;-68
2022/04/06 03:32:50;;;;;;;4.40;4.00;;;9.20;99.90;;;;;;5013893;28;20171;-69
2022/04/06 03:35:16;;;;;;;6.27;4.53;;;9.20;99.90;;;;;;5013776;28;20674;-68
2022/04/06 03:37:41;;;;;;;7.37;4.70;;;9.20;99.90;;;;;;5014443;28;20197;-69
2022/04/06 03:40:08;;;;;;;5.03;4.50;;;9.20;99.90;;;;;;5014561;28;20288;-68
2022/04/06 03:42:34;;;;;;;5.53;3.67;;;9.20;99.90;;;;;;5013408;28;20180;-69
2022/04/06 03:45:00;;;;;;;4.50;3.70;;;9.20;99.90;;;;;;5013420;28;20455;-68
2022/04/06 03:47:32;;;;;;;5.60;4.17;;;9.20;99.90;;;;;;5013721;28;20413;-69
2022/04/06 03:49:59;;;;;;;6.33;4.27;;;9.20;99.90;;;;;;5013527;28;20818;-69
2022/04/06 03:52:25;;;;;;;9.13;4.53;;;9.20;99.90;;;;;;5013372;28;20419;-69
2022/04/06 03:54:51;;;;;;;4.20;3.60;;;9.10;99.90;;;;;;5013724;28;20420;-69
2022/04/06 03:57:17;;;;;;;3.97;3.47;;;9.10;99.90;;;;;;5013221;28;20416;-69
2022/04/06 03:59:42;;;;;;;6.47;3.90;;;9.10;99.90;;;;;;5013138;28;20228;-69
2022/04/06 04:02:07;;;;;;;6.87;4.60;;;9.10;99.90;;;;;;5012875;28;20177;-68
2022/04/06 04:04:33;;;;;;;5.77;3.80;;;9.10;99.90;;;;;;5013116;28;20184;-68
2022/04/06 04:06:58;;;;;;;5.30;3.90;;;9.10;99.90;;;;;;5013155;28;20200;-67
2022/04/06 04:09:24;;;;;;;7.80;4.70;;;9.10;99.90;;;;;;5012729;28;20168;-67
2022/04/06 04:11:49;;;;;;;5.30;3.40;;;9.10;99.90;;;;;;5012771;28;20169;-68
2022/04/06 04:14:15;;;;;;;5.93;3.63;;;9.10;99.90;;;;;;5012820;28;20619;-68
2022/04/06 04:16:40;;;;;;;4.80;3.93;;;9.10;99.90;;;;;;5012791;28;20186;-68
2022/04/06 04:19:06;;;;;;;8.20;4.27;;;9.10;99.90;;;;;;5013025;28;20196;-68
2022/04/06 04:21:34;;;;;;;5.50;2.97;;;9.10;99.90;;;;;;5012661;28;20194;-68
2022/04/06 04:24:05;;;;;;;5.53;3.43;;;9.10;99.90;;;;;;5012678;28;20173;-68
2022/04/06 04:26:31;;;;;;;4.50;3.40;;;9.10;99.90;;;;;;5012958;28;20454;-68
2022/04/06 04:28:57;;;;;;;13.63;5.00;;;9.10;99.90;;;;;;5012695;28;20396;-68
2022/04/06 04:31:23;;;;;;;4.70;3.17;;;9.00;99.90;;;;;;5012710;28;20435;-69
2022/04/06 04:33:48;;;;;;;6.40;3.83;;;9.00;99.90;;;;;;5012799;28;20173;-69
2022/04/06 04:36:15;;;;;;;4.77;3.67;;;9.10;99.90;;;;;;5012731;28;20176;-69
2022/04/06 04:38:42;;;;;;;5.13;3.67;;;9.00;99.90;;;;;;5013200;28;20184;-69
2022/04/06 04:41:08;;;;;;;7.07;3.43;;;9.00;99.90;;;;;;5034350;23;20478;-72
2022/04/06 04:43:36;;;;;;;7.63;4.40;;;9.00;99.90;;;;;;5010961;28;20415;-69
2022/04/06 04:46:03;;;;;;;5.53;4.37;;;9.00;99.90;;;;;;5012182;28;20965;-70
2022/04/06 04:48:29;;;;;;;5.83;3.60;;;9.00;99.90;;;;;;5012301;28;20457;-70
2022/04/06 04:50:54;;;;;;;5.17;3.57;;;9.00;99.90;;;;;;5012046;28;20987;-70
2022/04/06 04:53:20;;;;;;;5.77;3.90;;;9.00;99.90;;;;;;5011961;28;20206;-70
2022/04/06 04:55:46;;;;;;;6.77;4.20;;;9.00;99.90;;;;;;5012073;28;20234;-70
2022/04/06 04:58:11;;;;;;;6.97;4.40;;;9.00;99.90;;;;;;5012068;28;20735;-70
2022/04/06 05:00:37;;;;;;;4.50;4.10;;;9.00;99.90;;;;;;5011909;28;20203;-71
2022/04/06 05:03:05;;;;;;;7.60;4.37;;;9.00;99.90;;;;;;5012005;28;20717;-71
2022/04/06 05:05:31;;;;;;;3.87;3.57;;;9.00;99.90;;;;;;5011811;28;20196;-70
2022/04/06 05:07:58;;;;;;;3.80;2.63;;;9.00;99.90;;;;;;5011985;28;20404;-71
2022/04/06 05:10:25;;;;;;;8.60;4.70;;;9.00;99.90;;;;;;5012030;28;20474;-70
2022/04/06 05:12:51;;;;;;;8.43;6.00;;;9.00;99.90;;;;;;5011879;28;20411;-70
2022/04/06 05:15:16;;;;;;;5.07;4.07;;;9.00;99.90;;;;;;5011451;28;20937;-70
2022/04/06 05:17:42;;;;;;;6.40;4.77;;;9.00;99.90;;;;;;5010965;28;20450;-71
2022/04/06 05:20:09;;;;;;;7.80;4.40;;;9.00;99.90;;;;;;5011969;28;20212;-70
2022/04/06 05:22:35;;;;;;;7.90;4.87;;;9.10;99.90;;;;;;5011708;28;20211;-71
2022/04/06 05:25:04;;;;;;;6.43;4.33;;;9.10;99.90;;;;;;5012142;28;20494;-71
2022/04/06 05:27:30;;;;;;;10.70;4.43;;;9.10;99.90;;;;;;5011895;28;20411;-70
2022/04/06 05:29:55;;;;;;;5.07;4.33;;;9.10;99.90;;;;;;5011724;28;20430;-69
2022/04/06 05:32:21;;;;;;;4.53;3.37;;;9.10;99.90;;;;;;5011920;28;20399;-70
2022/04/06 05:34:46;;;;;;;4.40;3.20;;;9.10;99.90;;;;;;5011665;28;20192;-70
2022/04/06 05:37:12;;;;;;;4.83;3.47;;;9.10;99.90;;;;;;5011760;28;20175;-70
2022/04/06 05:39:37;;;;;;;6.13;3.53;;;9.20;99.90;;;;;;5011432;28;20583;-70
2022/04/06 05:42:03;;;;;;;7.20;5.70;;;9.20;99.90;;;;;;5011832;28;20238;-71
2022/04/06 05:44:29;;;;;;;6.47;5.00;;;9.30;99.90;;;;;;5011654;28;20173;-70
2022/04/06 05:46:54;;;;;;;8.23;3.70;;;9.40;99.90;;;;;;5011626;28;20940;-70
2022/04/06 05:49:20;;;;;;;4.20;3.80;;;9.40;99.90;;;;;;5011319;28;20230;-70
2022/04/06 05:51:45;;;;;;;5.67;4.10;;;9.50;99.90;;;;;;5011372;28;20193;-69
2022/04/06 05:54:10;;;;;;;5.07;3.73;;;9.40;99.90;;;;;;5011260;28;20160;-69
2022/04/06 05:56:36;;;;;;;4.90;4.00;;;9.40;99.90;;;;;;5010598;28;20184;-69
2022/04/06 05:59:02;;;;;;;6.03;4.53;;;9.40;99.90;;;;;;5010371;28;20176;-70
2022/04/06 06:01:27;;;;;;;7.03;4.83;;;9.40;99.90;;;;;;5010232;28;20199;-70
2022/04/06 06:03:53;;;;;;;5.40;3.97;;;9.40;99.90;;;;;;5010246;28;20671;-70
2022/04/06 06:06:18;;;;;;;6.47;3.63;;;9.40;99.90;;;;;;5010954;28;20258;-70
2022/04/06 06:08:43;;;;;;;8.90;4.20;;;9.50;99.90;;;;;;5011520;28;20257;-71
2022/04/06 06:11:09;;;;;;;4.70;4.00;;;9.50;99.90;;;;;;5011646;28;20251;-70
2022/04/06 06:13:34;;;;;;;8.50;4.20;;;9.50;99.90;;;;;;5011299;28;20761;-69
2022/04/06 06:16:00;;;;;;;4.93;3.83;;;9.60;99.90;;;;;;5011183;28;20382;-71
2022/04/06 06:18:27;;;;;;;5.50;3.80;;;9.70;99.90;;;;;;5011130;28;20182;-70
2022/04/06 06:20:53;;;;;;;4.70;4.20;;;9.60;99.90;;;;;;5010961;28;20200;-71
2022/04/06 06:23:18;;;;;;;6.50;4.67;;;9.70;99.90;;;;;;5011081;28;20791;-71
2022/04/06 06:25:43;;;;;;;6.80;3.87;;;9.60;99.90;;;;;;5011339;28;20251;-71
2022/04/06 06:28:09;;;;;;;4.87;3.90;;;9.60;99.90;;;;;;5014821;28;20165;-71
2022/04/06 06:30:35;;;;;;;7.60;4.00;;;9.50;99.90;;;;;;5014494;28;20757;-70
2022/04/06 06:33:00;;;;;;;7.03;4.10;;;9.50;99.90;;;;;;5012433;28;20176;-70
2022/04/06 06:35:26;;;;;;;5.90;3.80;;;9.60;99.90;;;;;;5014178;28;20226;-70
2022/04/06 06:37:54;;;;;;;12.63;5.47;;;9.60;99.90;;;;;;5014388;28;20188;-71
2022/04/06 06:40:21;;;;;;;9.07;7.03;;;9.60;99.90;;;;;;5014551;28;20836;-69
2022/04/06 06:42:47;;;;;;;11.10;6.60;;;9.70;99.90;;;;;;5014059;28;20423;-70
2022/04/06 06:45:13;;;;;;;10.20;6.40;;;9.70;99.90;;;;;;5014146;28;20451;-73
2022/04/06 06:47:41;;;;;;;8.10;5.70;;;9.80;99.90;;;;;;5014247;28;20172;-70
2022/04/06 06:50:09;;;;;;;9.70;5.70;;;9.70;99.90;;;;;;5007466;28;20279;-70
2022/04/06 06:52:34;;;;;;;7.40;5.47;;;9.80;99.90;;;;;;4994229;28;20424;-71
2022/04/06 06:55:05;;;;;;;7.20;5.47;;;9.90;99.90;;;;;;4994302;28;20404;-70
2022/04/06 06:57:31;;;;;;;12.17;7.77;;;9.90;99.90;;;;;;4994940;28;20262;-70
2022/04/06 06:59:57;;;;;;;9.07;6.90;;;9.90;99.90;;;;;;4994349;28;20800;-70
2022/04/06 07:02:23;;;;;;;9.47;5.70;;;10.00;99.90;;;;;;4994077;28;20813;-70
2022/04/06 07:04:49;;;;;;;9.77;5.90;;;10.00;99.90;;;;;;4992881;28;20613;-70
2022/04/06 07:07:14;;;;;;;10.63;4.70;;;10.00;99.90;;;;;;5007290;28;20434;-70
2022/04/06 07:09:40;;;;;;;9.43;5.67;;;10.10;99.90;;;;;;5014125;28;20177;-70
2022/04/06 07:12:06;;;;;;;9.17;6.40;;;10.10;99.90;;;;;;5013903;28;20196;-70
2022/04/06 07:14:32;;;;;;;10.43;6.13;;;10.20;99.90;;;;;;5013928;28;20173;-68
2022/04/06 07:16:58;;;;;;;8.20;5.50;;;10.20;99.90;;;;;;5013664;28;20425;-69
2022/04/06 07:19:24;;;;;;;9.07;6.73;;;10.20;99.90;;;;;;5013891;28;20199;-70
2022/04/06 07:21:50;;;;;;;10.00;5.80;;;10.20;99.90;;;;;;5013633;28;20427;-69
2022/04/06 07:24:15;;;;;;;10.30;7.10;;;10.30;99.90;;;;;;5013460;28;20263;-70
2022/04/06 07:26:41;;;;;;;9.83;5.97;;;10.40;99.90;;;;;;5013562;28;20334;-70
2022/04/06 07:29:11;;;;;;;10.70;6.33;;;10.50;99.90;;;;;;5013444;28;20168;-70
2022/04/06 07:31:37;;;;;;;8.67;5.07;;;10.50;99.90;;;;;;5020746;28;20752;-69
2022/04/06 07:34:02;;;;;;;10.20;5.77;;;10.50;99.90;;;;;;5024928;28;20410;-70
2022/04/06 07:36:28;;;;;;;9.30;6.33;;;10.50;99.90;;;;;;5012598;28;20773;-71
2022/04/06 07:38:53;;;;;;;7.00;6.13;;;10.60;99.90;;;;;;5013039;28;20172;-69
2022/04/06 07:41:19;;;;;;;7.57;5.57;;;10.80;99.90;;;;;;5012405;28;20208;-68
2022/04/06 07:43:45;;;;;;;7.00;5.80;;;10.90;99.90;;;;;;5013167;28;20262;-69
2022/04/06 07:46:11;;;;;;;9.33;4.90;;;10.90;99.90;;;;;;5012773;28;20455;-69
2022/04/06 07:48:39;;;;;;;8.00;5.53;;;10.90;99.90;;;;;;5013164;28;20420;-69
2022/04/06 07:51:05;;;;;;;7.53;5.70;;;11.30;99.90;;;;;;5013191;28;20196;-69
2022/04/06 07:53:30;;;;;;;9.47;5.70;;;11.40;99.90;;;;;;5013164;28;20778;-69
2022/04/06 07:55:56;;;;;;;6.47;4.10;;;11.80;99.90;;;;;;5012751;28;20263;-69
2022/04/06 07:58:21;;;;;;;7.70;5.10;;;11.80;99.90;;;;;;5012893;28;20227;-68
2022/04/06 08:00:47;;;;;;;4.90;3.53;;;11.80;99.90;;;;;;5012486;28;20184;-68
2022/04/06 08:03:12;;;;;;;7.83;4.40;;;11.80;99.90;;;;;;5012775;28;20175;-68
2022/04/06 08:05:38;;;;;;;5.13;4.10;;;12.00;99.90;;;;;;5012543;28;20207;-69
2022/04/06 08:08:03;;;;;;;9.07;4.90;;;11.80;99.90;;;;;;5010658;28;20339;-70
2022/04/06 08:10:30;;;;;;;9.53;5.40;;;12.00;99.90;;;;;;5012488;28;20190;-69
2022/04/06 08:12:55;;;;;;;10.17;3.70;;;12.10;99.90;;;;;;5012502;28;20173;-69
2022/04/06 08:15:21;;;;;;;8.40;4.77;;;12.00;99.90;;;;;;5012151;28;20906;-69
2022/04/06 08:17:48;;;;;;;9.83;4.57;;;11.90;99.90;;;;;;5012941;28;20304;-69
2022/04/06 08:20:16;;;;;;;6.00;4.30;;;12.20;99.90;;;;;;5012678;28;20188;-70
2022/04/06 08:22:44;;;;;;;5.43;4.10;;;12.30;99.90;;;;;;5012642;28;20411;-69
2022/04/06 08:25:09;;;;;;;7.07;4.17;;;12.40;99.90;;;;;;5010147;28;20986;-70
2022/04/06 08:27:41;;;;;;;4.33;3.77;;;12.60;99.90;;;;;;4999405;28;20494;-70
2022/04/06 08:30:08;;;;;;;4.63;4.10;;;12.40;99.90;;;;;;5012300;28;20460;-69
2022/04/06 08:32:34;;;;;;;5.10;3.27;;;12.60;99.90;;;;;;5012891;28;20769;-69
2022/04/06 08:35:00;;;;;;;4.50;3.70;;;12.50;99.90;;;;;;5010028;28;20443;-69
2022/04/06 08:37:29;;;;;;;4.97;3.20;;;12.40;99.90;;;;;;4994565;28;20231;-69
2022/04/06 08:39:55;;;;;;;4.80;3.70;;;12.50;99.90;;;;;;4992763;28;20609;-70
2022/04/06 08:42:20;;;;;;;5.30;3.23;;;12.00;99.90;;;;;;5007616;28;20498;-70
2022/04/06 08:44:46;;;;;;;4.53;3.17;;;12.10;99.90;;;;;;5011908;28;20227;-70
2022/04/06 08:47:12;;;;;;;4.40;4.10;;;11.90;99.90;;;;;;5011864;28;20299;-69
2022/04/06 08:49:41;;;;;;;7.00;4.23;;;11.90;99.90;;;;;;5011174;28;20196;-70
2022/04/06 08:52:09;;;;;;;2.53;2.27;;;11.90;99.90;;;;;;5012037;28;20407;-70
2022/04/06 08:54:34;;;;;;;8.00;4.30;;;11.70;99.90;;;;;;4997912;28;20775;-68
2022/04/06 08:57:01;;;;;;;6.40;3.53;;;11.80;99.90;;;;;;5005354;28;20420;-69
2022/04/06 08:59:27;;;;;;;3.57;2.80;;;11.60;99.90;;;;;;5011796;28;20164;-68
2022/04/06 09:01:52;;;;;;;4.73;4.27;;;11.70;99.90;;;;;;5011667;28;20446;-70
2022/04/06 09:04:20;;;;;;;6.20;4.77;;;11.70;99.90;;;;;;5011621;28;20168;-70
2022/04/06 09:06:46;;;;;;;6.20;4.67;;;11.90;99.90;;;;;;5011774;28;20229;-69
2022/04/06 09:09:19;;;;;;;5.40;3.90;;;11.90;99.90;;;;;;5006286;28;20428;-68
2022/04/06 09:11:45;;;;;;;7.03;4.50;;;11.90;99.90;;;;;;4991598;28;20940;-69
2022/04/06 09:14:12;;;;;;;4.70;3.23;;;12.20;99.90;;;;;;4991877;28;20496;-70
2022/04/06 09:16:37;;;;;;;4.57;2.97;;;12.30;99.90;;;;;;5006718;28;20280;-70
2022/04/06 09:19:14;;;;;;;3.87;3.50;;;12.40;99.90;;;;;;5011541;28;20435;-71
2022/04/06 09:21:46;;;;;;;5.43;3.30;;;12.60;99.90;;;;;;5011895;28;20200;-71
2022/04/06 09:24:17;;;;;;;4.17;2.80;;;12.70;99.90;;;;;;5011645;28;20846;-70
2022/04/06 09:26:42;;;;;;;8.80;3.37;;;12.40;99.90;;;;;;5013667;28;20451;-70
2022/04/06 09:29:11;;;;;;;5.33;3.10;;;12.40;99.90;;;;;;5030999;28;20829;-70
2022/04/06 09:31:39;;;;;;;4.70;3.60;;;12.50;99.90;;;;;;5031127;28;20772;-69
2022/04/06 09:34:04;;;;;;;4.33;2.80;;;12.50;99.90;;;;;;5030464;28;20813;-69
2022/04/06 09:36:32;;;;;;;9.30;4.47;;;12.70;99.90;;;;;;5011028;28;20921;-70
2022/04/06 09:38:58;;;;;;;5.10;3.60;;;12.60;99.90;;;;;;5011249;28;20415;-71
2022/04/06 09:41:25;;;;;;;5.23;3.03;;;12.80;99.90;;;;;;5011088;28;20465;-71
2022/04/06 09:43:52;;;;;;;4.50;2.60;;;12.70;99.90;;;;;;5011172;28;20441;-70
2022/04/06 09:49:14;;;;;;;4.20;2.70;;;12.30;99.90;;;;;;5011047;28;20922;-71
2022/04/06 09:51:45;;;;;;;4.67;2.70;;;12.30;99.90;;;;;;5011011;28;20948;-70
2022/04/06 09:54:12;;;;;;;7.77;3.27;;;12.30;99.90;;;;;;5009763;28;20804;-70
2022/04/06 09:56:39;;;;;;;6.10;2.97;;;12.20;99.90;;;;;;5010999;28;20426;-70
2022/04/06 09:59:05;;;;;;;3.23;2.93;;;12.20;99.90;;;;;;5011223;28;20415;-71
2022/04/06 10:01:41;;;;;;;5.17;3.40;;;12.20;99.90;;;;;;5014051;28;20868;-70
2022/04/06 10:04:10;;;;;;;4.73;2.90;;;12.30;99.90;;;;;;5006557;28;20425;-70
2022/04/06 10:06:40;;;;;;;5.90;3.77;;;12.30;99.90;;;;;;5013850;28;20910;-70
2022/04/06 10:09:08;;;;;;;7.17;3.10;;;12.40;99.90;;;;;;5014997;28;20411;-71
2022/04/06 10:11:35;;;;;;;5.63;2.87;;;12.60;99.90;;;;;;5013707;28;20433;-70
2022/04/06 10:14:04;;;;;;;6.40;4.37;;;12.60;99.90;;;;;;5014757;28;20443;-70
2022/04/06 10:16:30;;;;;;;4.77;3.83;;;12.60;99.90;;;;;;5014706;28;20443;-70
2022/04/06 10:18:57;;;;;;;7.07;3.67;;;13.00;99.90;;;;;;5014454;28;20407;-71
2022/04/06 10:21:48;;;;;;;3.83;3.30;;;13.00;99.90;;;;;;5014704;28;20438;-70
2022/04/06 10:24:32;;;;;;;3.67;3.03;;;12.80;99.90;;;;;;5015649;28;20740;-72
2022/04/06 10:27:28;;;;;;;4.30;3.20;;;12.80;99.90;;;;;;5014432;28;20493;-70
2022/04/06 10:30:11;;;;;;;7.33;3.53;;;12.80;99.90;;;;;;5015319;28;20411;-70
2022/04/06 10:32:41;;;;;;;5.60;3.13;;;12.50;99.90;;;;;;5014439;28;20561;-69
2022/04/06 10:35:24;;;;;;;4.70;3.47;;;12.50;99.90;;;;;;5014339;28;20427;-71
2022/04/06 10:37:49;;;;;;;7.03;4.17;;;12.60;99.90;;;;;;5014489;28;20419;-70
2022/04/06 10:40:15;;;;;;;7.60;4.70;;;12.50;99.90;;;;;;5016961;28;20470;-70
2022/04/06 10:42:42;;;;;;;3.03;2.60;;;12.40;99.90;;;;;;5014053;28;20180;-69
2022/04/06 10:45:27;;;;;;;5.77;3.73;;;12.40;99.90;;;;;;5025119;28;20484;-70
2022/04/06 10:48:14;;;;;;;3.87;3.13;;;12.50;99.90;;;;;;5014143;28;20960;-71
2022/04/06 10:50:44;;;;;;;7.67;3.37;;;12.70;99.90;;;;;;5014320;28;20952;-71
2022/04/06 10:53:21;;;;;;;3.80;3.23;;;12.80;99.90;;;;;;5013826;28;20494;-72
2022/04/06 10:56:12;;;;;;;3.03;2.53;;;13.00;99.90;;;;;;5013739;28;20407;-69
2022/04/06 10:59:06;;;;;;;9.80;4.63;;;13.10;99.90;;;;;;5014013;28;20415;-69
2022/04/06 11:01:34;;;;;;;3.70;3.00;;;13.20;99.90;;;;;;5006760;28;20957;-71
2022/04/06 11:04:15;;;;;;;3.60;2.70;;;13.10;99.90;;;;;;5013751;28;20470;-71
2022/04/06 11:06:40;;;;;;;5.40;3.10;;;13.10;99.90;;;;;;5013748;28;20481;-71
2022/04/06 11:12:15;;;;;;;2.40;2.20;;;12.80;99.90;;;;;;4993647;28;20582;-70
2022/04/06 11:14:42;;;;;;;2.90;2.57;;;12.90;99.90;;;;;;5010670;28;20417;-71
2022/04/06 11:17:30;;;;;;;3.00;2.60;;;12.70;99.90;;;;;;5013393;28;20407;-72
2022/04/06 11:19:56;;;;;;;4.47;2.63;;;12.60;99.90;;;;;;5013291;28;20898;-71
2022/04/06 11:22:22;;;;;;;3.30;2.37;;;12.80;99.90;;;;;;5013487;28;20407;-72
2022/04/06 11:24:48;;;;;;;3.10;2.17;;;13.10;99.90;;;;;;5013165;28;20256;-71
2022/04/06 11:27:32;;;;;;;3.40;3.10;;;12.70;99.90;;;;;;5013212;28;20474;-70
2022/04/06 11:30:04;;;;;;;5.90;2.87;;;12.50;99.90;;;;;;5013351;28;21023;-71
2022/04/06 11:32:29;;;;;;;4.17;3.03;;;12.40;99.90;;;;;;5013243;28;20400;-71
2022/04/06 11:35:03;;;;;;;5.67;2.90;;;12.30;99.90;;;;;;5013244;28;20418;-70
2022/04/06 11:37:29;;;;;;;5.87;2.80;;;12.40;99.90;;;;;;5012840;28;20200;-70
2022/04/06 11:40:01;;;;;;;5.07;2.77;;;12.40;99.90;;;;;;5012653;28;21422;-71
2022/04/06 11:42:27;;;;;;;5.70;3.17;;;12.30;99.90;;;;;;5012443;28;20172;-71
2022/04/06 11:44:53;;;;;;;4.10;3.60;;;12.30;99.90;;;;;;5018974;28;20407;-71
2022/04/06 11:47:35;;;;;;;4.33;3.27;;;12.20;99.90;;;;;;5027835;28;20460;-71
2022/04/06 11:50:02;;;;;;;6.47;3.80;;;12.10;99.90;;;;;;5012899;28;20881;-71
2022/04/06 11:52:28;;;;;;;4.10;2.87;;;12.10;99.90;;;;;;5013400;28;20400;-71
2022/04/06 11:54:56;;;;;;;3.07;2.77;;;12.10;99.90;;;;;;5013176;28;20423;-71
2022/04/06 11:57:32;;;;;;;3.53;2.60;;;12.00;99.90;;;;;;5012334;28;20160;-71
2022/04/06 11:59:58;;;;;;;4.87;2.83;;;11.90;99.90;;;;;;5012006;28;20450;-71
2022/04/06 12:02:23;;;;;;;8.53;3.50;;;11.90;99.90;;;;;;4992293;28;20907;-71
2022/04/06 12:04:59;;;;;;;4.47;3.20;;;11.90;99.90;;;;;;4993013;28;20312;-71
2022/04/06 12:07:25;;;;;;;3.30;2.60;;;11.80;99.90;;;;;;5002599;28;20528;-71
2022/04/06 12:09:51;;;;;;;7.73;2.63;;;11.80;99.90;;;;;;5012616;28;20434;-72
2022/04/06 12:12:17;;;;;;;4.53;4.07;;;11.70;99.90;;;;;;5012536;28;20175;-71
2022/04/06 12:14:43;;;;;;;3.97;3.03;;;11.70;99.90;;;;;;5011520;28;20403;-72
2022/04/06 12:17:08;;;;;;;5.83;2.30;;;11.60;99.90;;;;;;5012654;28;20160;-71
2022/04/06 12:19:34;;;;;;;3.80;2.70;;;11.60;99.90;;;;;;5023093;28;20525;-70
2022/04/06 12:22:11;;;;;;;5.07;3.23;;;11.60;99.90;;;;;;5032526;28;20437;-71
2022/04/06 12:24:38;;;;;;;3.97;2.40;;;11.70;99.90;;;;;;5031871;28;20179;-70
2022/04/06 12:27:04;;;;;;;3.40;2.63;;;11.60;99.90;;;;;;5032049;28;20500;-71
2022/04/06 12:29:32;;;;;;;5.93;3.53;;;11.70;99.90;;;;;;5031861;28;20913;-71
2022/04/06 12:31:58;;;;;;;3.47;2.30;;;11.70;99.90;;;;;;5006833;28;20451;-70
2022/04/06 12:34:37;;;;;;;2.77;2.43;;;11.70;99.90;;;;;;5010496;28;20716;-71
2022/04/06 12:39:57;;;;;;;5.03;2.87;;;11.70;99.90;;;;;;5011995;28;20434;-71
2022/04/06 12:42:23;;;;;;;3.40;2.53;;;11.60;99.90;;;;;;5011686;28;20526;-71
2022/04/06 12:45:02;;;;;;;4.47;2.67;;;11.70;99.90;;;;;;5011895;28;20454;-71
2022/04/06 12:47:28;;;;;;;8.83;2.83;;;11.80;99.90;;;;;;5012098;28;20414;-70
2022/04/06 12:50:19;;;;;;;3.70;2.80;;;11.80;99.90;;;;;;4997809;28;20440;-72
2022/04/06 12:53:07;;;;;;;6.23;3.00;;;11.80;99.90;;;;;;5011820;28;20403;-71
2022/04/06 12:55:32;;;;;;;4.13;2.40;;;11.70;99.90;;;;;;5000215;28;20451;-71
2022/04/06 12:58:18;;;;;;;3.50;2.83;;;11.70;99.90;;;;;;5011554;28;20450;-69
2022/04/06 13:00:43;;;;;;;4.70;3.50;;;11.80;99.90;;;;;;5011893;28;20199;-73
2022/04/06 13:03:09;;;;;;;4.47;2.83;;;11.80;99.90;;;;;;5011181;28;20415;-71
2022/04/06 13:05:34;;;;;;;4.30;2.57;;;12.00;99.90;;;;;;5010959;28;20466;-71
2022/04/06 13:08:02;;;;;;;6.67;3.10;;;12.30;99.90;;;;;;4999370;28;20880;-72